Vermillion Acres, Indiana
Current Conditions -  °F | °C
As of 10:53 PM on Thursday 27 Nov 2014 (Local Time) from KHUF Reporting Station
Clear Clear  
Wind Chill: 13°   Ceiling: Unl
Heat Index: 20°   Visibility: 10mi
Dew Point: 14°   Wind: 5mph
Humidity: 78%   Direction: 280°W
Pressure: 30.45"   Gusts: NA
Location:  39.5107°N, 87.4772°W
Report Text: KHUF 280353Z 28004KT 10SM CLR M07/M10 A3045 RMK AO2 SLP318 T10671100
Loading
Personal Weather Stations






























Interactive Weather Map New forecast layout! Learn more

10-Day Weather Forecast

Advertisements
Track Severe Weather on mobile